Time;durP1;ratioP1;P1;durP2;ratioP2;P2;SDS_P1;SDS_P2;PMS_P1;PMS_P2;Temp;Humidity;BMP_temperature;BMP_pressure;BME280_temperature;BME280_humidity;BME280_pressure;Samples;Min_cycle;Max_cycle;Signal;HPM_P1;HPM_P2
2023/03/08 00:01:12;;;;;;;;;;;;;;;5.63;83.34;98206.44;5094274;28;19920;-66
2023/03/08 00:03:41;;;;;;;;;;;;;;;5.63;83.30;98206.44;5093912;28;19973;-66
2023/03/08 00:06:11;;;;;;;;;;;;;;;5.64;83.46;98208.13;5093784;28;19963;-66
2023/03/08 00:08:39;;;;;;;;;;;;;;;5.62;83.34;98204.72;5093780;28;19924;-66
2023/03/08 00:11:09;;;;;;;;;;;;;;;5.63;83.26;98206.44;5094163;28;19966;-66
2023/03/08 00:13:38;;;;;;;;;;;;;;;5.60;82.97;98203.91;5093815;28;19920;-66
2023/03/08 00:16:07;;;;;;;;;;;;;;;5.59;83.18;98200.53;5094070;28;19987;-66
2023/03/08 00:18:38;;;;;;;;;;;;;;;5.61;83.39;98203.06;5093767;28;19927;-65
2023/03/08 00:21:07;;;;;;;;;;;;;;;5.64;83.32;98203.06;5093766;28;19973;-65
2023/03/08 00:23:36;;;;;;;;;;;;;;;5.64;83.14;98201.34;5093813;28;19924;-66
2023/03/08 00:26:04;;;;;;;;;;;;;;;5.66;83.27;98206.41;5093718;28;19927;-66
2023/03/08 00:28:33;;;;;;;;;;;;;;;5.65;83.03;98202.19;5093577;28;20014;-65
2023/03/08 00:31:02;;;;;;;;;;;;;;;5.62;83.02;98194.59;5093896;28;20387;-66
2023/03/08 00:33:31;;;;;;;;;;;;;;;5.59;83.23;98194.66;5092728;28;20259;-66
2023/03/08 00:36:03;;;;;;;;;;;;;;;5.58;83.10;98193.81;5093615;28;20381;-65
2023/03/08 00:38:32;;;;;;;;;;;;;;;5.54;83.40;98176.97;5094226;28;19955;-65
2023/03/08 00:41:00;;;;;;;;;;;;;;;5.49;83.15;98172.75;5097401;28;19970;-66
2023/03/08 00:43:31;;;;;;;;;;;;;;;5.40;83.29;98173.63;5097641;28;19943;-65
2023/03/08 00:46:03;;;;;;;;;;;;;;;5.35;83.27;98178.72;5097385;28;19920;-66
2023/03/08 00:48:32;;;;;;;;;;;;;;;5.28;83.18;98174.53;5097142;28;19919;-65
2023/03/08 00:51:01;;;;;;;;;;;;;;;5.22;83.16;98161.94;5097196;28;19955;-65
2023/03/08 00:53:30;;;;;;;;;;;;;;;5.15;83.19;98162.81;5097184;28;19997;-65
2023/03/08 00:55:59;;;;;;;;;;;;;;;5.06;83.05;98165.34;5097102;28;19973;-65
2023/03/08 00:58:31;;;;;;;;;;;;;;;5.00;83.01;98157.78;5097332;28;19923;-65
2023/03/08 01:01:00;;;;;;;;;;;;;;;4.92;82.78;98148.56;5097014;28;19970;-65
2023/03/08 01:03:29;;;;;;;;;;;;;;;4.82;82.88;98141.84;5096953;28;20370;-66
2023/03/08 01:05:58;;;;;;;;;;;;;;;4.71;82.70;98131.75;5096916;28;19920;-66
2023/03/08 01:08:28;;;;;;;;;;;;;;;4.64;82.44;98128.41;5095610;28;19952;-66
2023/03/08 01:10:58;;;;;;;;;;;;;;;4.60;83.00;98138.53;5097138;28;19927;-65
2023/03/08 01:13:28;;;;;;;;;;;;;;;4.62;82.73;98149.47;5096705;28;19920;-65
2023/03/08 01:15:57;;;;;;;;;;;;;;;4.61;83.07;98150.31;5096260;28;19927;-65
2023/03/08 01:18:25;;;;;;;;;;;;;;;4.58;83.30;98152.84;5096721;28;19920;-65
2023/03/08 01:20:58;;;;;;;;;;;;;;;4.52;83.58;98142.75;5096640;28;19963;-65
2023/03/08 01:23:28;;;;;;;;;;;;;;;4.44;83.30;98147.81;5095834;28;19973;-65
2023/03/08 01:25:59;;;;;;;;;;;;;;;4.32;83.71;98150.34;5096939;28;19973;-65
2023/03/08 01:28:28;;;;;;;;;;;;;;;4.26;83.49;98149.50;5095253;28;20010;-65
2023/03/08 01:31:01;;;;;;;;;;;;;;;4.14;83.58;98150.38;5095236;28;20006;-65
2023/03/08 01:33:29;;;;;;;;;;;;;;;4.01;83.29;98157.09;5096474;28;20018;-66
2023/03/08 01:35:58;;;;;;;;;;;;;;;3.89;83.83;98154.56;5095821;28;19919;-65
2023/03/08 01:38:28;;;;;;;;;;;;;;;3.86;84.09;98168.88;5096318;28;19920;-65
2023/03/08 01:40:57;;;;;;;;;;;;;;;3.85;84.09;98168.03;5095104;28;19922;-65
2023/03/08 01:43:27;;;;;;;;;;;;;;;3.90;84.22;98176.44;5096157;28;19920;-66
2023/03/08 01:46:08;;;;;;;;;;;;;;;3.92;84.28;98176.44;5095131;28;19942;-66
2023/03/08 01:48:39;;;;;;;;;;;;;;;3.92;83.75;98184.84;5095156;28;19920;-66
2023/03/08 01:51:13;;;;;;;;;;;;;;;3.78;83.59;98181.47;5095661;28;19928;-65
2023/03/08 01:53:44;;;;;;;;;;;;;;;3.73;84.24;98178.09;5095130;28;19927;-65
2023/03/08 01:56:15;;;;;;;;;;;;;;;3.66;83.42;98186.47;5095947;28;19955;-65
2023/03/08 01:58:45;;;;;;;;;;;;;;;3.61;83.53;98182.25;5096248;28;19920;-65
2023/03/08 02:01:14;;;;;;;;;;;;;;;3.57;83.75;98190.66;5095865;28;19920;-65
2023/03/08 02:03:44;;;;;;;;;;;;;;;3.48;83.56;98193.97;5094619;28;20430;-65
2023/03/08 02:06:14;;;;;;;;;;;;;;;3.47;83.48;98194.84;5094856;28;19924;-65
2023/03/08 02:08:44;;;;;;;;;;;;;;;3.49;83.58;98198.19;5094425;28;19920;-65
2023/03/08 02:11:13;;;;;;;;;;;;;;;3.49;83.69;98193.16;5095871;28;20385;-65
2023/03/08 02:13:42;;;;;;;;;;;;;;;3.47;83.90;98189.78;5095612;28;20014;-65
2023/03/08 02:16:12;;;;;;;;;;;;;;;3.53;84.32;98184.75;5094634;28;19950;-65
2023/03/08 02:18:51;;;;;;;;;;;;;;;3.60;84.64;98181.41;5095520;28;19966;-66
2023/03/08 02:21:22;;;;;;;;;;;;;;;3.65;84.62;98194.03;5094243;28;19985;-65
2023/03/08 02:23:53;;;;;;;;;;;;;;;3.67;84.76;98193.19;5095662;28;19986;-65
2023/03/08 02:26:22;;;;;;;;;;;;;;;3.71;85.17;98205.00;5095743;28;20394;-65
2023/03/08 02:28:50;;;;;;;;;;;;;;;3.72;85.09;98205.84;5095530;28;20423;-66
2023/03/08 02:31:21;;;;;;;;;;;;;;;3.72;85.89;98204.13;5095672;28;19923;-65
2023/03/08 02:33:50;;;;;;;;;;;;;;;3.70;85.40;98200.78;5094244;28;19959;-65
2023/03/08 02:36:18;;;;;;;;;;;;;;;3.69;85.88;98201.63;5095151;28;20358;-65
2023/03/08 02:38:46;;;;;;;;;;;;;;;3.60;86.00;98211.66;5095402;28;19920;-65
2023/03/08 02:41:16;;;;;;;;;;;;;;;3.57;86.38;98211.69;5094227;28;19920;-65
2023/03/08 02:43:45;;;;;;;;;;;;;;;3.59;86.35;98209.16;5095297;28;19920;-65
2023/03/08 02:46:14;;;;;;;;;;;;;;;3.57;86.33;98210.84;5095001;28;19919;-66
2023/03/08 02:48:44;;;;;;;;;;;;;;;3.56;86.25;98217.56;5095434;28;19933;-65
2023/03/08 02:51:14;;;;;;;;;;;;;;;3.53;87.04;98225.09;5094953;28;19966;-65
2023/03/08 02:53:43;;;;;;;;;;;;;;;3.55;87.29;98227.66;5093935;28;19920;-65
2023/03/08 02:56:11;;;;;;;;;;;;;;;3.57;86.98;98216.72;5095095;28;20267;-65
2023/03/08 02:58:41;;;;;;;;;;;;;;;3.55;87.17;98218.38;5093886;28;20302;-65
2023/03/08 03:01:11;;;;;;;;;;;;;;;3.55;87.14;98212.53;5095851;28;19945;-65
2023/03/08 03:03:39;;;;;;;;;;;;;;;3.52;86.87;98222.59;5093414;28;19920;-65
2023/03/08 03:06:13;;;;;;;;;;;;;;;3.47;87.22;98232.66;5093478;28;19923;-65
2023/03/08 03:08:44;;;;;;;;;;;;;;;3.45;86.73;98236.00;5093338;28;19924;-65
2023/03/08 03:11:13;;;;;;;;;;;;;;;3.41;87.23;98245.22;5094902;28;19924;-66
2023/03/08 03:13:44;;;;;;;;;;;;;;;3.36;86.78;98247.72;5094410;28;20365;-65
2023/03/08 03:16:16;;;;;;;;;;;;;;;3.32;86.71;98250.22;5093356;28;19924;-65
2023/03/08 03:18:44;;;;;;;;;;;;;;;3.27;86.79;98247.69;5094469;28;19920;-65
2023/03/08 03:21:13;;;;;;;;;;;;;;;3.27;87.26;98242.66;5093247;28;19923;-66
2023/03/08 03:23:42;;;;;;;;;;;;;;;3.22;86.44;98244.31;5094354;28;19969;-66
2023/03/08 03:26:15;;;;;;;;;;;;;;;3.21;87.16;98242.63;5093200;28;19942;-65
2023/03/08 03:28:47;;;;;;;;;;;;;;;3.23;87.45;98240.13;5093323;28;19920;-66
2023/03/08 03:31:18;;;;;;;;;;;;;;;3.30;87.03;98241.81;5093137;28;19927;-66
2023/03/08 03:33:47;;;;;;;;;;;;;;;3.31;86.79;98258.66;5093091;28;20471;-66
2023/03/08 03:36:17;;;;;;;;;;;;;;;3.29;87.80;98250.22;5093327;28;20366;-66
2023/03/08 03:38:46;;;;;;;;;;;;;;;3.30;87.98;98265.38;5093254;28;19962;-66
2023/03/08 03:41:15;;;;;;;;;;;;;;;3.26;87.56;98266.16;5093183;28;19945;-66
2023/03/08 03:43:45;;;;;;;;;;;;;;;3.24;88.27;98265.31;5094565;28;19920;-65
2023/03/08 03:46:17;;;;;;;;;;;;;;;3.22;88.33;98268.66;5094040;28;19958;-66
2023/03/08 03:48:50;;;;;;;;;;;;;;;3.16;88.16;98246.81;5094923;28;20056;-66
2023/03/08 03:51:22;;;;;;;;;;;;;;;3.21;88.64;98256.91;5094465;28;19920;-65
2023/03/08 03:53:59;;;;;;;;;;;;;;;3.26;88.70;98267.88;5094056;28;19920;-66
2023/03/08 03:56:29;;;;;;;;;;;;;;;3.25;88.75;98263.66;5093861;28;19998;-66
2023/03/08 03:59:00;;;;;;;;;;;;;;;3.27;89.10;98272.06;5092780;28;19920;-66
2023/03/08 04:01:31;;;;;;;;;;;;;;;3.29;89.78;98285.50;5092769;28;19990;-66
2023/03/08 04:04:06;;;;;;;;;;;;;;;3.27;89.02;98277.09;5093942;28;19920;-66
2023/03/08 04:06:37;;;;;;;;;;;;;;;3.18;89.66;98274.53;5094115;28;20375;-66
2023/03/08 04:09:07;;;;;;;;;;;;;;;3.18;89.91;98274.53;5093821;28;20266;-66
2023/03/08 04:11:39;;;;;;;;;;;;;;;3.20;89.60;98290.50;5093263;28;19920;-66
2023/03/08 04:14:13;;;;;;;;;;;;;;;3.18;89.78;98287.13;5095549;28;19920;-66
2023/03/08 04:16:44;;;;;;;;;;;;;;;3.21;90.03;98284.63;5098216;28;19963;-66
2023/03/08 04:19:22;;;;;;;;;;;;;;;3.15;89.54;98282.06;5097900;28;19973;-66
2023/03/08 04:21:54;;;;;;;;;;;;;;;3.10;89.77;98288.75;5096721;28;19971;-66
2023/03/08 04:24:25;;;;;;;;;;;;;;;3.13;89.51;98278.69;5097776;28;19920;-66
2023/03/08 04:26:57;;;;;;;;;;;;;;;3.13;90.32;98289.63;5097557;28;20369;-66
2023/03/08 04:29:28;;;;;;;;;;;;;;;3.13;89.58;98283.75;5097993;28;19951;-66
2023/03/08 04:31:59;;;;;;;;;;;;;;;3.13;90.21;98294.66;5097551;28;19955;-66
2023/03/08 04:34:37;;;;;;;;;;;;;;;3.14;90.36;98306.41;5097565;28;19919;-66
2023/03/08 04:37:07;;;;;;;;;;;;;;;3.18;89.73;98304.78;5098177;28;19963;-66
2023/03/08 04:39:36;;;;;;;;;;;;;;;3.21;90.59;98302.28;5096221;28;20019;-66
2023/03/08 04:42:04;;;;;;;;;;;;;;;3.24;90.13;98322.44;5096553;28;19931;-66
2023/03/08 04:44:35;;;;;;;;;;;;;;;3.27;90.00;98307.34;5097677;28;19973;-66
2023/03/08 04:47:06;;;;;;;;;;;;;;;3.32;90.16;98319.16;5097221;28;19920;-66
2023/03/08 04:49:46;;;;;;;;;;;;;;;3.35;90.99;98320.84;5097212;28;19966;-66
2023/03/08 04:52:14;;;;;;;;;;;;;;;3.41;90.41;98323.38;5096011;28;19959;-66
2023/03/08 04:54:44;;;;;;;;;;;;;;;3.47;90.70;98325.97;5097126;28;19970;-66
2023/03/08 04:57:23;;;;;;;;;;;;;;;3.52;91.08;98324.31;5097022;28;19920;-66
2023/03/08 04:59:54;;;;;;;;;;;;;;;3.50;90.46;98325.97;5097058;28;20386;-66
2023/03/08 05:02:24;;;;;;;;;;;;;;;3.50;90.55;98325.13;5095811;28;19920;-66
2023/03/08 05:04:53;;;;;;;;;;;;;;;3.57;90.98;98325.19;5095877;28;19959;-65
2023/03/08 05:07:21;;;;;;;;;;;;;;;3.59;90.70;98330.22;5095993;28;19965;-66
2023/03/08 05:09:52;;;;;;;;;;;;;;;3.68;90.82;98331.09;5096786;28;19920;-66
2023/03/08 05:12:20;;;;;;;;;;;;;;;3.69;91.11;98339.53;5095532;28;19920;-65
2023/03/08 05:14:52;;;;;;;;;;;;;;;3.73;90.91;98337.00;5097149;28;19920;-66
2023/03/08 05:17:21;;;;;;;;;;;;;;;3.77;91.47;98340.38;5095835;28;19920;-66
2023/03/08 05:19:51;;;;;;;;;;;;;;;3.80;91.19;98336.19;5096576;28;19920;-66
2023/03/08 05:22:25;;;;;;;;;;;;;;;3.82;90.79;98338.72;5096763;28;20274;-66
2023/03/08 05:24:57;;;;;;;;;;;;;;;3.82;90.68;98339.56;5095944;28;19920;-66
2023/03/08 05:27:27;;;;;;;;;;;;;;;3.84;90.70;98339.59;5096465;28;19920;-66
2023/03/08 05:29:55;;;;;;;;;;;;;;;3.78;90.33;98347.97;5095436;28;19928;-66
2023/03/08 05:32:25;;;;;;;;;;;;;;;3.74;90.82;98353.81;5096690;28;19955;-66
2023/03/08 05:34:55;;;;;;;;;;;;;;;3.74;90.44;98356.34;5096412;28;19920;-66
2023/03/08 05:37:33;;;;;;;;;;;;;;;3.74;90.63;98358.03;5096572;28;20344;-66
2023/03/08 05:40:05;;;;;;;;;;;;;;;3.69;90.73;98352.97;5096330;28;19931;-66
2023/03/08 05:42:37;;;;;;;;;;;;;;;3.68;90.16;98346.22;5095167;28;20427;-66
2023/03/08 05:45:07;;;;;;;;;;;;;;;3.71;90.54;98350.44;5095287;28;20356;-66
2023/03/08 05:47:38;;;;;;;;;;;;;;;3.67;89.92;98349.59;5094954;28;19920;-66
2023/03/08 05:50:12;;;;;;;;;;;;;;;3.66;90.36;98352.97;5096079;28;19919;-66
2023/03/08 05:52:42;;;;;;;;;;;;;;;3.60;90.34;98357.94;5096379;28;20023;-66
2023/03/08 05:55:15;;;;;;;;;;;;;;;3.59;89.66;98356.28;5095981;28;19924;-66
2023/03/08 05:57:45;;;;;;;;;;;;;;;3.58;89.99;98369.72;5095993;28;19927;-66
2023/03/08 06:00:15;;;;;;;;;;;;;;;3.56;89.37;98381.47;5095309;28;20392;-66
2023/03/08 06:02:43;;;;;;;;;;;;;;;3.47;89.43;98376.38;5096335;28;20354;-66
2023/03/08 06:05:15;;;;;;;;;;;;;;;3.43;89.63;98381.41;5096408;28;19966;-66
2023/03/08 06:07:45;;;;;;;;;;;;;;;3.41;88.84;98386.41;5095772;28;19927;-66
2023/03/08 06:10:15;;;;;;;;;;;;;;;3.40;88.88;98384.75;5095786;28;19990;-66
2023/03/08 06:12:44;;;;;;;;;;;;;;;3.42;88.99;98388.13;5094858;28;19926;-66
2023/03/08 06:15:17;;;;;;;;;;;;;;;3.45;88.36;98393.19;5095521;28;19931;-66
2023/03/08 06:17:45;;;;;;;;;;;;;;;3.49;88.68;98389.84;5094513;28;19969;-66
2023/03/08 06:20:19;;;;;;;;;;;;;;;3.54;88.70;98392.38;5094255;28;19920;-66
2023/03/08 06:22:51;;;;;;;;;;;;;;;3.59;88.49;98401.69;5095371;28;19924;-66
2023/03/08 06:25:19;;;;;;;;;;;;;;;3.66;88.28;98398.38;5094420;28;19920;-66
2023/03/08 06:27:49;;;;;;;;;;;;;;;3.77;88.12;98390.84;5095690;28;19920;-66
2023/03/08 06:30:30;;;;;;;;;;;;;;;3.98;88.21;98401.88;5094402;28;19919;-66
2023/03/08 06:32:59;;;;;;;;;;;;;;;4.04;87.83;98401.91;5093880;28;19935;-66
2023/03/08 06:35:29;;;;;;;;;;;;;;;4.10;87.87;98395.22;5094225;28;19924;-66
2023/03/08 06:38:02;;;;;;;;;;;;;;;4.16;87.34;98405.31;5094800;28;19927;-66
2023/03/08 06:40:31;;;;;;;;;;;;;;;4.29;87.62;98409.59;5095707;28;19927;-66
2023/03/08 06:43:00;;;;;;;;;;;;;;;4.54;87.65;98408.81;5094156;28;19920;-66
2023/03/08 06:45:29;;;;;;;;;;;;;;;4.66;86.92;98398.72;5093577;28;19923;-66
2023/03/08 06:47:57;;;;;;;;;;;;;;;4.81;87.08;98401.28;5093726;28;19923;-66
2023/03/08 06:50:26;;;;;;;;;;;;;;;4.96;86.09;98413.09;5093494;28;19955;-66
2023/03/08 06:52:56;;;;;;;;;;;;;;;5.12;85.79;98408.06;5094063;28;20022;-66
2023/03/08 06:55:39;;;;;;;;;;;;;;;5.33;85.39;98410.56;5095206;28;19977;-66
2023/03/08 06:58:08;;;;;;;;;;;;;;;5.50;84.84;98407.19;5093747;28;20006;-65
2023/03/08 07:00:36;;;;;;;;;;;;;;;5.71;84.17;98409.69;5095365;28;20272;-66
2023/03/08 07:03:05;;;;;;;;;;;;;;;5.86;83.12;98414.75;5094445;28;19951;-65
2023/03/08 07:05:34;;;;;;;;;;;;;;;6.04;82.43;98409.63;5094670;28;19920;-65
2023/03/08 07:08:04;;;;;;;;;;;;;;;6.21;80.94;98415.50;5094474;28;19927;-65
2023/03/08 07:10:32;;;;;;;;;;;;;;;6.31;78.98;98417.13;5094803;28;19919;-65
2023/03/08 07:13:01;;;;;;;;;;;;;;;6.39;77.88;98420.47;5094591;28;19920;-65
2023/03/08 07:15:29;;;;;;;;;;;;;;;6.57;76.41;98420.41;5094631;28;19981;-65
2023/03/08 07:17:59;;;;;;;;;;;;;;;6.58;73.70;98419.53;5094527;28;20336;-65
2023/03/08 07:20:28;;;;;;;;;;;;;;;6.65;72.16;98423.72;5094669;28;19920;-65
2023/03/08 07:22:57;;;;;;;;;;;;;;;6.85;71.01;98435.44;5094723;28;20338;-66
2023/03/08 07:25:28;;;;;;;;;;;;;;;7.02;69.44;98434.47;5094292;28;19927;-66
2023/03/08 07:27:58;;;;;;;;;;;;;;;7.13;69.33;98431.84;5094164;28;19920;-65
2023/03/08 07:30:27;;;;;;;;;;;;;;;7.26;68.27;98438.53;5094215;28;19926;-65
2023/03/08 07:32:56;;;;;;;;;;;;;;;7.28;67.59;98442.75;5094281;28;20294;-66
2023/03/08 07:35:24;;;;;;;;;;;;;;;7.31;66.28;98436.81;5094206;28;19927;-66
2023/03/08 07:37:53;;;;;;;;;;;;;;;7.45;65.69;98440.06;5094451;28;19920;-65
2023/03/08 07:40:21;;;;;;;;;;;;;;;7.54;65.70;98445.06;5094122;28;19919;-66
2023/03/08 07:42:51;;;;;;;;;;;;;;;7.60;64.66;98434.88;5094079;28;19920;-66
2023/03/08 07:45:32;;;;;;;;;;;;;;;7.70;63.87;98444.06;5094361;28;20290;-66
2023/03/08 07:48:01;;;;;;;;;;;;;;;7.81;64.05;98449.91;5093716;28;20371;-66
2023/03/08 07:50:29;;;;;;;;;;;;;;;7.83;62.96;98453.25;5093799;28;19928;-65
2023/03/08 07:52:59;;;;;;;;;;;;;;;7.89;63.35;98443.03;5094157;28;19920;-66
2023/03/08 07:55:28;;;;;;;;;;;;;;;8.02;62.80;98454.75;5094433;28;19920;-65
2023/03/08 07:57:57;;;;;;;;;;;;;;;8.22;62.85;98456.25;5097097;28;19920;-66
2023/03/08 08:00:26;;;;;;;;;;;;;;;8.40;61.02;98456.03;5106032;28;19920;-65
2023/03/08 08:02:56;;;;;;;;;;;;;;;8.49;60.27;98441.56;5094024;28;19926;-66
2023/03/08 08:05:24;;;;;;;;;;;;;;;8.60;59.17;98439.69;5098462;28;19927;-66
2023/03/08 08:07:53;;;;;;;;;;;;;;;8.71;59.40;98442.94;5112275;28;20246;-65
2023/03/08 08:10:21;;;;;;;;;;;;;;;8.77;58.63;98436.94;5106108;28;19927;-65
2023/03/08 08:12:50;;;;;;;;;;;;;;;8.76;57.93;98430.16;5096980;28;19924;-65
2023/03/08 08:15:22;;;;;;;;;;;;;;;8.74;56.37;98426.78;5093653;28;19919;-66
2023/03/08 08:17:51;;;;;;;;;;;;;;;8.76;56.29;98420.81;5094068;28;20288;-65
2023/03/08 08:20:19;;;;;;;;;;;;;;;8.90;56.46;98418.06;5093602;28;19920;-65
2023/03/08 08:22:50;;;;;;;;;;;;;;;8.98;55.40;98418.81;5093971;28;20301;-65
2023/03/08 08:25:20;;;;;;;;;;;;;;;9.12;55.50;98414.34;5093767;28;19966;-65
2023/03/08 08:27:50;;;;;;;;;;;;;;;9.25;54.69;98413.31;5097981;28;19919;-65
2023/03/08 08:30:20;;;;;;;;;;;;;;;9.31;54.40;98418.28;5114411;28;19964;-65
2023/03/08 08:32:48;;;;;;;;;;;;;;;9.45;54.24;98408.72;5113978;28;20018;-65
2023/03/08 08:35:17;;;;;;;;;;;;;;;9.63;54.59;98401.63;5114137;28;19919;-65
2023/03/08 08:37:45;;;;;;;;;;;;;;;9.73;53.34;98393.81;5113874;28;19919;-65
2023/03/08 08:40:14;;;;;;;;;;;;;;;9.79;52.92;98396.22;5113880;28;19920;-66
2023/03/08 08:42:42;;;;;;;;;;;;;;;9.86;52.68;98397.78;5113743;28;19920;-65
2023/03/08 08:45:11;;;;;;;;;;;;;;;9.94;52.06;98383.22;5113892;28;19923;-65
2023/03/08 08:47:44;;;;;;;;;;;;;;;10.10;51.99;98379.50;5114505;28;19931;-66
2023/03/08 08:50:13;;;;;;;;;;;;;;;10.20;52.31;98375.09;5113797;28;20372;-65
2023/03/08 08:52:41;;;;;;;;;;;;;;;10.34;51.50;98383.28;5113830;28;19919;-66
2023/03/08 08:55:10;;;;;;;;;;;;;;;10.30;51.18;98386.78;5114085;28;19920;-66
2023/03/08 08:57:38;;;;;;;;;;;;;;;10.21;50.34;98386.13;5114104;28;19957;-65
2023/03/08 09:00:08;;;;;;;;;;;;;;;10.21;50.29;98392.06;5115380;28;19919;-65
2023/03/08 09:02:37;;;;;;;;;;;;;;;10.29;50.00;98402.13;5115660;28;20026;-66
2023/03/08 09:05:07;;;;;;;;;;;;;;;10.18;49.71;98392.13;5097095;28;19924;-66
2023/03/08 09:07:36;;;;;;;;;;;;;;;10.25;49.61;98388.56;5096731;28;19930;-66
2023/03/08 09:10:07;;;;;;;;;;;;;;;10.43;49.61;98388.22;5095977;28;20014;-66
2023/03/08 09:12:35;;;;;;;;;;;;;;;10.54;49.39;98386.25;5096869;28;20335;-66
2023/03/08 09:15:06;;;;;;;;;;;;;;;10.68;49.25;98376.59;5097000;28;19973;-66
2023/03/08 09:17:34;;;;;;;;;;;;;;;10.76;48.88;98382.38;5097005;28;19951;-65
2023/03/08 09:20:04;;;;;;;;;;;;;;;10.93;48.98;98368.38;5096526;28;19920;-66
2023/03/08 09:22:35;;;;;;;;;;;;;;;10.81;48.17;98378.88;5098635;28;19920;-66
2023/03/08 09:25:06;;;;;;;;;;;;;;;10.63;48.44;98375.84;5100995;28;19920;-65
2023/03/08 09:27:35;;;;;;;;;;;;;;;10.45;47.81;98366.06;5096804;28;20007;-65
2023/03/08 09:30:03;;;;;;;;;;;;;;;10.39;47.81;98371.28;5096525;28;20326;-66
2023/03/08 09:32:33;;;;;;;;;;;;;;;10.45;47.81;98373.72;5096288;28;19920;-65
2023/03/08 09:35:01;;;;;;;;;;;;;;;10.51;47.95;98370.19;5096635;28;20348;-65
2023/03/08 09:37:30;;;;;;;;;;;;;;;10.61;47.76;98372.50;5096187;28;19993;-66
2023/03/08 09:39:58;;;;;;;;;;;;;;;10.79;47.65;98376.38;5096189;28;19920;-65
2023/03/08 09:42:29;;;;;;;;;;;;;;;10.75;46.76;98373.03;5096179;28;19920;-65
2023/03/08 09:45:06;;;;;;;;;;;;;;;10.74;47.05;98355.22;5096263;28;19920;-65
2023/03/08 09:47:45;;;;;;;;;;;;;;;10.73;46.68;98351.81;5096285;28;19955;-65
2023/03/08 09:50:21;;;;;;;;;;;;;;;10.68;47.16;98352.78;5099311;28;19920;-65
2023/03/08 09:52:53;;;;;;;;;;;;;;;10.44;46.98;98360.97;5096240;28;19974;-65
2023/03/08 09:55:28;;;;;;;;;;;;;;;10.31;47.08;98357.03;5102333;28;19924;-65
2023/03/08 09:58:00;;;;;;;;;;;;;;;10.35;46.85;98351.81;5095734;28;19966;-65
2023/03/08 10:00:31;;;;;;;;;;;;;;;10.47;47.35;98360.91;5116622;28;19970;-65
2023/03/08 10:03:10;;;;;;;;;;;;;;;10.50;46.58;98354.06;5116587;28;19926;-65
2023/03/08 10:05:42;;;;;;;;;;;;;;;10.62;46.32;98348.69;5116327;27;19919;-65
2023/03/08 10:08:13;;;;;;;;;;;;;;;10.73;46.91;98356.91;5116514;28;20254;-64
2023/03/08 10:10:48;;;;;;;;;;;;;;;10.78;46.80;98344.06;5115960;28;19919;-65
2023/03/08 10:13:27;;;;;;;;;;;;;;;11.10;46.59;98338.19;5115566;28;19920;-65
2023/03/08 10:15:59;;;;;;;;;;;;;;;11.36;46.51;98333.28;5116299;28;20431;-65
2023/03/08 10:18:29;;;;;;;;;;;;;;;11.52;46.25;98337.09;5116372;28;19920;-65
2023/03/08 10:20:59;;;;;;;;;;;;;;;11.50;45.98;98331.19;5115943;28;19920;-65
2023/03/08 10:23:28;;;;;;;;;;;;;;;11.42;45.68;98333.13;5115817;28;20010;-65
2023/03/08 10:25:57;;;;;;;;;;;;;;;11.48;45.88;98343.19;5116439;28;19976;-65
2023/03/08 10:28:27;;;;;;;;;;;;;;;11.49;45.69;98349.13;5115604;28;19981;-64
2023/03/08 10:30:58;;;;;;;;;;;;;;;11.52;45.57;98354.97;5115770;27;20010;-64
2023/03/08 10:33:30;;;;;;;;;;;;;;;11.52;45.76;98360.09;5115542;28;19919;-65
2023/03/08 10:36:00;;;;;;;;;;;;;;;11.33;45.80;98356.31;5116160;28;19920;-64
2023/03/08 10:38:32;;;;;;;;;;;;;;;10.95;46.23;98361.53;5116012;28;20356;-65
2023/03/08 10:41:01;;;;;;;;;;;;;;;10.65;46.35;98361.34;5114637;28;19919;-67
2023/03/08 10:43:32;;;;;;;;;;;;;;;10.48;46.91;98348.16;5094591;28;20018;-64
2023/03/08 10:46:02;;;;;;;;;;;;;;;10.46;47.67;98347.31;5094977;28;19919;-64
2023/03/08 10:48:31;;;;;;;;;;;;;;;10.38;47.60;98345.81;5095227;28;20010;-65
2023/03/08 10:51:01;;;;;;;;;;;;;;;10.18;47.09;98346.22;5095276;28;19920;-65
2023/03/08 10:53:30;;;;;;;;;;;;;;;10.14;48.08;98344.63;5094867;28;20250;-64
2023/03/08 10:55:59;;;;;;;;;;;;;;;10.11;49.22;98344.66;5094793;28;20010;-65
2023/03/08 10:58:35;;;;;;;;;;;;;;;10.08;49.46;98345.56;5094663;28;19965;-64
2023/03/08 11:01:05;;;;;;;;;;;;;;;10.03;48.73;98336.31;5095185;28;19923;-64
2023/03/08 11:03:33;;;;;;;;;;;;;;;9.98;49.20;98335.59;5094628;28;20438;-64
2023/03/08 11:06:03;;;;;;;;;;;;;;;10.00;48.90;98328.75;5095563;28;20345;-64
2023/03/08 11:08:32;;;;;;;;;;;;;;;10.03;49.65;98326.97;5094549;28;19920;-64
2023/03/08 11:11:02;;;;;;;;;;;;;;;10.10;49.28;98317.50;5094652;28;19924;-64
2023/03/08 11:13:32;;;;;;;;;;;;;;;10.03;49.52;98316.75;5094331;28;19920;-64
2023/03/08 11:16:08;;;;;;;;;;;;;;;9.97;49.87;98323.69;5094595;28;20353;-64
2023/03/08 11:18:47;;;;;;;;;;;;;;;9.89;50.27;98323.00;5094508;28;19924;-64
2023/03/08 11:21:20;;;;;;;;;;;;;;;9.89;50.63;98330.66;5093820;28;19920;-64
2023/03/08 11:23:54;;;;;;;;;;;;;;;9.91;50.09;98314.47;5094966;28;19919;-64
2023/03/08 11:26:28;;;;;;;;;;;;;;;9.92;50.02;98308.50;5094685;28;20023;-64
2023/03/08 11:29:03;;;;;;;;;;;;;;;9.96;50.44;98304.19;5094326;28;19959;-64
2023/03/08 11:31:36;;;;;;;;;;;;;;;9.99;50.46;98309.22;5094336;28;20396;-64
2023/03/08 11:34:14;;;;;;;;;;;;;;;10.06;50.43;98305.66;5112224;28;19926;-64
2023/03/08 11:36:48;;;;;;;;;;;;;;;10.13;50.33;98301.31;5114692;28;20006;-64
2023/03/08 11:39:22;;;;;;;;;;;;;;;10.06;50.19;98295.47;5114385;28;19919;-64
2023/03/08 11:41:55;;;;;;;;;;;;;;;10.02;50.04;98283.69;5114764;28;19923;-63
2023/03/08 11:44:34;;;;;;;;;;;;;;;10.07;50.16;98286.97;5114396;28;19929;-64
2023/03/08 11:47:19;;;;;;;;;;;;;;;10.14;50.10;98277.50;5114308;28;19954;-64
2023/03/08 11:49:55;;;;;;;;;;;;;;;10.19;50.04;98271.44;5114803;28;19926;-64
2023/03/08 11:52:29;;;;;;;;;;;;;;;10.26;49.70;98269.59;5114775;28;19924;-64
2023/03/08 11:55:04;;;;;;;;;;;;;;;10.28;49.79;98266.13;5114595;28;20010;-64
2023/03/08 11:57:35;;;;;;;;;;;;;;;10.26;49.70;98255.13;5114416;28;19920;-64
2023/03/08 12:00:11;;;;;;;;;;;;;;;10.26;49.34;98247.50;5114442;28;20371;-64
2023/03/08 12:02:45;;;;;;;;;;;;;;;10.35;49.38;98247.28;5114306;28;19920;-64
2023/03/08 12:05:17;;;;;;;;;;;;;;;10.55;49.11;98240.00;5114328;28;19977;-64
2023/03/08 12:07:48;;;;;;;;;;;;;;;10.68;48.71;98231.16;5114498;28;19931;-64
2023/03/08 12:10:20;;;;;;;;;;;;;;;10.75;48.45;98221.63;5112292;28;20285;-64
2023/03/08 12:12:51;;;;;;;;;;;;;;;10.91;48.10;98229.75;5093608;28;19975;-63
2023/03/08 12:15:23;;;;;;;;;;;;;;;11.03;48.10;98207.31;5093984;28;19970;-64
2023/03/08 12:17:56;;;;;;;;;;;;;;;11.16;47.62;98197.59;5092210;28;20277;-65
2023/03/08 12:20:28;;;;;;;;;;;;;;;11.25;47.27;98187.97;5093131;28;20015;-64
2023/03/08 12:23:00;;;;;;;;;;;;;;;11.11;46.82;98182.41;5092608;28;19998;-64
2023/03/08 12:25:31;;;;;;;;;;;;;;;11.06;46.61;98185.97;5093991;28;20361;-64
2023/03/08 12:28:02;;;;;;;;;;;;;;;10.96;46.86;98171.78;5093778;28;19954;-64
2023/03/08 12:30:44;;;;;;;;;;;;;;;11.01;47.39;98178.44;5092470;28;19938;-64
2023/03/08 12:33:15;;;;;;;;;;;;;;;11.05;47.71;98164.72;5093992;28;19920;-64
2023/03/08 12:35:51;;;;;;;;;;;;;;;11.02;47.50;98158.84;5096000;28;19924;-64
2023/03/08 12:38:31;;;;;;;;;;;;;;;11.01;48.02;98157.19;5097727;28;19920;-63
2023/03/08 12:40:59;;;;;;;;;;;;;;;11.05;48.51;98148.56;5097423;28;19920;-64
2023/03/08 12:43:30;;;;;;;;;;;;;;;11.12;48.52;98140.69;5097252;28;19919;-64
2023/03/08 12:46:03;;;;;;;;;;;;;;;11.03;47.70;98124.78;5097412;28;19920;-64
2023/03/08 12:48:36;;;;;;;;;;;;;;;10.97;47.75;98117.28;5097534;28;19920;-64
2023/03/08 12:51:09;;;;;;;;;;;;;;;11.08;47.98;98117.84;5097361;28;19920;-64
2023/03/08 12:53:39;;;;;;;;;;;;;;;11.19;47.97;98110.69;5099519;28;19920;-65
2023/03/08 12:56:19;;;;;;;;;;;;;;;11.38;48.11;98122.06;5105554;28;19919;-63
2023/03/08 12:58:49;;;;;;;;;;;;;;;11.38;47.66;98116.94;5106585;28;20427;-64
2023/03/08 13:01:28;;;;;;;;;;;;;;;11.23;47.07;98115.69;5106421;28;19970;-64
2023/03/08 13:03:58;;;;;;;;;;;;;;;11.10;47.17;98116.06;5097208;28;19943;-64
2023/03/08 13:06:40;;;;;;;;;;;;;;;11.04;47.84;98121.34;5097662;28;19919;-65
2023/03/08 13:09:18;;;;;;;;;;;;;;;11.00;48.21;98109.53;5104965;28;19920;-64
2023/03/08 13:11:50;;;;;;;;;;;;;;;10.88;48.76;98115.00;5099648;28;20006;-64